Time;durP1;ratioP1;P1;durP2;ratioP2;P2;SDS_P1;SDS_P2;PMS_P1;PMS_P2;Temp;Humidity;BMP_temperature;BMP_pressure;BME280_temperature;BME280_humidity;BME280_pressure;Samples;Min_cycle;Max_cycle;Signal;HPM_P1;HPM_P2
2023/11/15 00:00:25;;;;;;;0.70;0.70;;;10.90;99.90;;;;;;5013510;28;21001;-62
2023/11/15 00:02:52;;;;;;;1.57;1.53;;;10.90;99.90;;;;;;5013062;28;20486;-63
2023/11/15 00:05:20;;;;;;;0.50;0.50;;;10.80;99.90;;;;;;5012983;28;20451;-64
2023/11/15 00:07:47;;;;;;;1.03;0.40;;;10.80;99.90;;;;;;5013362;28;20965;-63
2023/11/15 00:10:14;;;;;;;1.03;0.73;;;10.80;99.90;;;;;;5013130;28;20473;-63
2023/11/15 00:12:41;;;;;;;2.73;0.50;;;10.80;99.90;;;;;;5011894;28;20541;-63
2023/11/15 00:15:09;;;;;;;0.83;0.60;;;10.80;99.90;;;;;;5027624;28;20513;-64
2023/11/15 00:17:36;;;;;;;1.40;0.70;;;10.80;99.90;;;;;;5021010;28;20439;-63
2023/11/15 00:20:05;;;;;;;1.03;1.03;;;10.80;99.90;;;;;;5032250;28;20509;-63
2023/11/15 00:22:33;;;;;;;0.50;0.50;;;10.80;99.90;;;;;;5032470;28;20572;-63
2023/11/15 00:25:00;;;;;;;1.40;1.30;;;10.80;99.90;;;;;;5032872;28;20544;-63
2023/11/15 00:27:27;;;;;;;1.07;0.97;;;10.80;99.90;;;;;;5032147;28;20966;-63
2023/11/15 00:29:54;;;;;;;0.50;0.40;;;10.80;99.90;;;;;;5032334;28;20465;-62
2023/11/15 00:32:21;;;;;;;0.70;0.53;;;10.80;99.90;;;;;;5032484;28;20541;-63
2023/11/15 00:34:48;;;;;;;1.10;1.00;;;10.80;99.90;;;;;;5027815;28;20541;-63
2023/11/15 00:37:15;;;;;;;0.57;0.50;;;10.70;99.90;;;;;;5024062;28;20944;-63
2023/11/15 00:39:43;;;;;;;0.73;0.60;;;10.80;99.90;;;;;;5012239;28;20546;-63
2023/11/15 00:42:10;;;;;;;0.40;0.40;;;10.80;99.90;;;;;;4992945;28;21124;-62
2023/11/15 00:44:38;;;;;;;0.93;0.50;;;10.80;99.90;;;;;;4993242;28;20451;-63
2023/11/15 00:47:05;;;;;;;1.60;0.60;;;10.80;99.90;;;;;;4992764;28;20494;-63
2023/11/15 00:49:32;;;;;;;1.10;0.43;;;10.80;99.90;;;;;;5001582;28;20463;-63
2023/11/15 00:51:59;;;;;;;9.17;0.83;;;10.80;99.90;;;;;;5011961;28;20453;-63
2023/11/15 00:54:26;;;;;;;1.20;0.53;;;10.70;99.90;;;;;;5010925;28;20453;-63
2023/11/15 00:56:55;;;;;;;0.80;0.53;;;10.70;99.90;;;;;;5009607;28;20451;-63
2023/11/15 00:59:26;;;;;;;1.03;0.60;;;10.80;99.90;;;;;;5010084;28;20477;-63
2023/11/15 01:01:58;;;;;;;0.60;0.50;;;10.80;99.90;;;;;;5011271;28;20497;-63
2023/11/15 01:04:25;;;;;;;0.77;0.77;;;10.80;99.90;;;;;;5012575;28;20517;-63
2023/11/15 01:06:52;;;;;;;0.30;0.30;;;10.80;99.90;;;;;;5011818;28;20446;-63
2023/11/15 01:09:20;;;;;;;0.50;0.50;;;10.90;99.90;;;;;;5012017;28;20450;-63
2023/11/15 01:11:49;;;;;;;0.60;0.60;;;10.80;99.90;;;;;;5012527;28;20447;-63
2023/11/15 01:14:17;;;;;;;2.80;0.70;;;10.80;99.90;;;;;;5012092;28;20478;-63
2023/11/15 01:16:44;;;;;;;0.47;0.47;;;10.80;99.90;;;;;;5012066;28;20458;-63
2023/11/15 01:19:11;;;;;;;0.90;0.40;;;10.80;99.90;;;;;;5020425;28;20443;-63
2023/11/15 01:21:38;;;;;;;3.80;1.10;;;10.80;99.90;;;;;;5012131;28;20531;-63
2023/11/15 01:24:05;;;;;;;1.20;0.67;;;10.80;99.90;;;;;;5012340;28;20447;-63
2023/11/15 01:26:32;;;;;;;1.07;0.60;;;10.80;99.90;;;;;;5011865;28;20501;-62
2023/11/15 01:28:59;;;;;;;3.03;0.87;;;10.80;99.90;;;;;;5012233;28;20442;-63
2023/11/15 01:31:27;;;;;;;1.83;0.83;;;10.80;99.90;;;;;;5012374;28;21067;-63
2023/11/15 01:33:54;;;;;;;0.70;0.67;;;10.80;99.90;;;;;;5012377;28;20545;-63
2023/11/15 01:36:21;;;;;;;1.47;0.90;;;10.80;99.90;;;;;;5012213;28;20541;-63
2023/11/15 01:38:48;;;;;;;0.50;0.50;;;10.80;99.90;;;;;;5012334;28;20945;-63
2023/11/15 01:41:16;;;;;;;0.83;0.77;;;10.80;99.90;;;;;;5011766;28;20478;-63
2023/11/15 01:43:44;;;;;;;0.70;0.70;;;10.90;99.90;;;;;;5012184;28;20501;-63
2023/11/15 01:46:14;;;;;;;1.30;1.20;;;10.90;99.90;;;;;;5011884;28;20486;-63
2023/11/15 01:48:42;;;;;;;2.40;0.97;;;10.90;99.90;;;;;;5012340;28;20549;-63
2023/11/15 01:51:10;;;;;;;2.70;0.93;;;10.90;99.90;;;;;;5011869;28;20561;-62
2023/11/15 01:53:38;;;;;;;1.17;0.83;;;10.90;99.90;;;;;;5012002;28;20457;-63
2023/11/15 01:56:06;;;;;;;1.07;0.93;;;10.90;99.90;;;;;;5011985;28;20969;-62
2023/11/15 01:58:33;;;;;;;0.60;0.60;;;10.90;99.90;;;;;;5012125;28;20529;-63
2023/11/15 02:01:01;;;;;;;1.17;1.07;;;11.00;99.90;;;;;;5011807;28;20459;-63
2023/11/15 02:03:27;;;;;;;2.93;0.83;;;11.00;99.90;;;;;;5012102;28;21016;-63
2023/11/15 02:05:56;;;;;;;1.30;0.83;;;11.00;99.90;;;;;;5011921;28;20457;-63
2023/11/15 02:08:23;;;;;;;0.73;0.73;;;11.00;99.90;;;;;;5011989;28;20537;-63
2023/11/15 02:10:50;;;;;;;1.27;1.00;;;11.10;99.90;;;;;;5012102;28;20552;-63
2023/11/15 02:13:25;;;;;;;1.30;0.80;;;11.10;99.90;;;;;;5012069;28;20478;-63
2023/11/15 02:15:52;;;;;;;2.13;0.90;;;11.10;99.90;;;;;;5015382;28;20456;-63
2023/11/15 02:18:19;;;;;;;1.47;1.33;;;11.10;99.90;;;;;;5015423;28;20537;-63
2023/11/15 02:20:47;;;;;;;4.20;1.20;;;11.10;99.90;;;;;;5015675;28;20884;-63
2023/11/15 02:23:19;;;;;;;2.50;1.43;;;11.10;99.90;;;;;;5015956;28;20866;-63
2023/11/15 02:25:49;;;;;;;3.93;1.07;;;11.10;99.90;;;;;;5015306;28;20457;-63
2023/11/15 02:28:16;;;;;;;0.90;0.70;;;11.00;99.90;;;;;;5016034;28;20454;-63
2023/11/15 02:30:42;;;;;;;0.80;0.50;;;11.00;99.90;;;;;;5015257;28;20538;-63
2023/11/15 02:33:09;;;;;;;2.53;1.07;;;11.00;99.90;;;;;;5015511;28;20822;-63
2023/11/15 02:35:36;;;;;;;1.53;1.47;;;11.00;99.90;;;;;;5015058;28;20815;-63
2023/11/15 02:38:03;;;;;;;1.40;1.13;;;11.00;99.90;;;;;;5067107;22;20499;-66
2023/11/15 02:40:30;;;;;;;0.70;0.70;;;11.00;99.90;;;;;;5054245;28;20459;-66
2023/11/15 02:42:58;;;;;;;0.53;0.53;;;11.00;99.90;;;;;;5054075;28;20488;-65
2023/11/15 02:45:25;;;;;;;0.57;0.57;;;10.90;99.90;;;;;;5054294;28;20617;-65
2023/11/15 02:47:51;;;;;;;2.73;0.60;;;10.90;99.90;;;;;;5054001;28;20875;-65
2023/11/15 02:50:19;;;;;;;0.50;0.50;;;10.90;99.90;;;;;;5054200;28;20449;-66
2023/11/15 02:52:46;;;;;;;0.57;0.57;;;10.80;99.90;;;;;;5054071;28;20449;-66
2023/11/15 02:55:13;;;;;;;0.87;0.57;;;10.80;99.90;;;;;;5053861;28;20532;-65
2023/11/15 02:57:40;;;;;;;2.03;0.97;;;10.80;99.90;;;;;;5053690;28;20472;-66
2023/11/15 03:00:10;;;;;;;5.23;1.47;;;10.80;99.90;;;;;;5053911;28;20445;-66
2023/11/15 03:02:38;;;;;;;1.53;0.40;;;10.80;99.90;;;;;;5053975;28;20483;-66
2023/11/15 03:05:06;;;;;;;1.43;0.70;;;10.80;99.90;;;;;;5053872;28;20883;-66
2023/11/15 03:07:32;;;;;;;1.67;1.00;;;10.70;99.90;;;;;;5053528;28;20548;-66
2023/11/15 03:09:59;;;;;;;0.60;0.60;;;10.60;99.90;;;;;;5054170;28;20452;-66
2023/11/15 03:12:26;;;;;;;2.67;0.93;;;10.60;99.90;;;;;;5053897;28;20532;-66
2023/11/15 03:14:53;;;;;;;1.77;0.80;;;10.50;99.90;;;;;;5053705;28;20487;-66
2023/11/15 03:17:21;;;;;;;2.63;0.70;;;10.50;99.90;;;;;;5053424;28;20506;-66
2023/11/15 03:19:48;;;;;;;1.10;0.90;;;10.50;99.90;;;;;;5053631;28;20990;-66
2023/11/15 03:22:15;;;;;;;1.97;0.80;;;10.50;99.90;;;;;;5053312;28;20485;-66
2023/11/15 03:24:45;;;;;;;1.03;0.83;;;10.50;99.90;;;;;;5053416;28;21011;-66
2023/11/15 03:27:12;;;;;;;0.87;0.87;;;10.40;99.90;;;;;;5053043;28;20491;-66
2023/11/15 03:29:39;;;;;;;0.90;0.60;;;10.50;99.90;;;;;;5053452;28;20455;-66
2023/11/15 03:32:06;;;;;;;1.87;0.90;;;10.50;99.90;;;;;;5053407;28;20476;-66
2023/11/15 03:34:35;;;;;;;2.47;0.80;;;10.40;99.90;;;;;;5053183;28;20478;-66
2023/11/15 03:37:04;;;;;;;1.77;1.00;;;10.40;99.90;;;;;;5052699;28;20559;-66
2023/11/15 03:39:32;;;;;;;4.03;1.50;;;10.30;99.90;;;;;;5053413;28;20452;-65
2023/11/15 03:42:00;;;;;;;4.03;1.17;;;10.30;99.90;;;;;;5053248;28;20449;-65
2023/11/15 03:44:26;;;;;;;1.03;0.67;;;10.30;99.90;;;;;;5053191;28;20885;-66
2023/11/15 03:46:53;;;;;;;1.33;1.07;;;10.30;99.90;;;;;;5052713;28;21066;-66
2023/11/15 03:49:20;;;;;;;1.60;0.90;;;10.20;99.90;;;;;;5052942;28;20455;-66
2023/11/15 03:51:49;;;;;;;0.90;0.90;;;10.20;99.90;;;;;;5052942;28;20448;-66
2023/11/15 03:54:15;;;;;;;1.43;1.20;;;10.20;99.90;;;;;;5053007;28;20519;-66
2023/11/15 03:56:42;;;;;;;1.50;0.90;;;10.20;99.90;;;;;;5052731;28;20480;-66
2023/11/15 03:59:09;;;;;;;1.40;0.83;;;10.10;99.90;;;;;;5052939;28;20445;-66
2023/11/15 04:01:36;;;;;;;4.73;1.10;;;10.20;99.90;;;;;;5052780;28;20943;-66
2023/11/15 04:04:03;;;;;;;3.03;1.50;;;10.10;99.90;;;;;;5052588;28;20488;-66
2023/11/15 04:06:29;;;;;;;3.57;2.40;;;10.20;99.90;;;;;;5052260;28;20445;-66
2023/11/15 04:08:59;;;;;;;2.33;1.20;;;10.20;99.90;;;;;;5052783;28;20535;-66
2023/11/15 04:11:26;;;;;;;2.47;1.10;;;10.20;99.90;;;;;;5052569;28;20448;-66
2023/11/15 04:13:54;;;;;;;2.87;1.40;;;10.20;99.90;;;;;;5052460;28;20444;-65
2023/11/15 04:16:21;;;;;;;2.67;1.13;;;10.20;99.90;;;;;;5052081;28;20962;-66
2023/11/15 04:18:48;;;;;;;0.80;0.80;;;10.20;99.90;;;;;;5052722;28;20452;-66
2023/11/15 04:21:15;;;;;;;3.53;2.13;;;10.20;99.90;;;;;;5052690;28;20445;-66
2023/11/15 04:23:43;;;;;;;3.43;1.23;;;10.30;99.90;;;;;;5051043;28;20491;-66
2023/11/15 04:26:12;;;;;;;1.27;0.90;;;10.30;99.90;;;;;;5051972;28;20452;-66
2023/11/15 04:28:38;;;;;;;4.80;1.50;;;10.20;99.90;;;;;;5052091;28;20445;-66
2023/11/15 04:31:06;;;;;;;3.13;1.70;;;10.20;99.90;;;;;;5052152;28;20453;-67
2023/11/15 04:33:33;;;;;;;3.33;1.50;;;10.20;99.90;;;;;;5052315;28;20441;-66
2023/11/15 04:36:00;;;;;;;3.60;1.70;;;10.20;99.90;;;;;;5051727;28;20445;-66
2023/11/15 04:38:27;;;;;;;5.37;1.47;;;10.20;99.90;;;;;;5051147;28;20998;-66
2023/11/15 04:40:55;;;;;;;1.43;1.33;;;10.20;99.90;;;;;;5051894;28;20966;-67
2023/11/15 04:43:24;;;;;;;3.50;1.23;;;10.20;99.90;;;;;;5051875;28;20903;-66
2023/11/15 04:45:51;;;;;;;1.43;0.97;;;10.20;99.90;;;;;;5050627;28;20460;-66
2023/11/15 04:48:18;;;;;;;2.80;2.27;;;10.20;99.90;;;;;;5051152;28;20467;-66
2023/11/15 04:50:45;;;;;;;1.93;1.20;;;10.20;99.90;;;;;;5052008;28;20455;-66
2023/11/15 04:53:12;;;;;;;1.10;1.00;;;10.20;99.90;;;;;;5051910;28;20441;-66
2023/11/15 04:55:39;;;;;;;3.97;1.87;;;10.20;99.90;;;;;;5051656;28;20456;-66
2023/11/15 04:58:05;;;;;;;2.77;1.50;;;10.20;99.90;;;;;;5051429;28;20834;-66
2023/11/15 05:00:34;;;;;;;1.17;1.07;;;10.10;99.90;;;;;;5052053;28;20467;-66
2023/11/15 05:03:00;;;;;;;2.40;1.20;;;10.20;99.90;;;;;;5051582;28;20491;-66
2023/11/15 05:05:29;;;;;;;3.43;1.37;;;10.20;99.90;;;;;;5051641;28;20655;-66
2023/11/15 05:07:56;;;;;;;2.70;1.80;;;10.20;99.90;;;;;;5051264;28;20519;-66
2023/11/15 05:10:24;;;;;;;2.63;1.20;;;10.20;99.90;;;;;;5051594;28;20444;-66
2023/11/15 05:12:51;;;;;;;1.80;0.93;;;10.10;99.90;;;;;;5051378;28;20449;-66
2023/11/15 05:15:18;;;;;;;2.07;1.60;;;10.10;99.90;;;;;;5051529;28;20822;-66
2023/11/15 05:17:46;;;;;;;2.70;1.20;;;10.10;99.90;;;;;;5051291;28;20476;-66
2023/11/15 05:20:13;;;;;;;1.40;1.23;;;10.10;99.90;;;;;;5051433;28;20535;-66
2023/11/15 05:22:40;;;;;;;2.67;1.80;;;10.10;99.90;;;;;;5051218;28;21016;-66
2023/11/15 05:25:07;;;;;;;5.37;1.43;;;10.10;99.90;;;;;;5051081;28;20463;-66
2023/11/15 05:27:34;;;;;;;2.13;1.43;;;10.10;99.90;;;;;;5050766;28;20828;-66
2023/11/15 05:30:02;;;;;;;14.77;3.10;;;10.10;99.90;;;;;;5051238;28;20452;-66
2023/11/15 05:32:29;;;;;;;3.20;1.47;;;10.10;99.90;;;;;;5051392;28;20445;-66
2023/11/15 05:34:57;;;;;;;3.07;1.40;;;10.20;99.90;;;;;;5051222;28;20451;-66
2023/11/15 05:37:24;;;;;;;1.77;1.10;;;10.10;99.90;;;;;;5050926;28;20483;-66
2023/11/15 05:39:50;;;;;;;2.67;1.40;;;10.20;99.90;;;;;;5051132;28;20828;-66
2023/11/15 05:42:17;;;;;;;1.30;1.17;;;10.20;99.90;;;;;;5051113;28;20535;-66
2023/11/15 05:44:44;;;;;;;2.50;1.50;;;10.30;99.90;;;;;;5051269;28;20605;-66
2023/11/15 05:47:11;;;;;;;4.03;1.63;;;10.30;99.90;;;;;;5050965;28;20962;-66
2023/11/15 05:49:38;;;;;;;1.80;1.60;;;10.30;99.90;;;;;;5054632;28;20943;-66
2023/11/15 05:52:06;;;;;;;1.73;1.20;;;10.30;99.90;;;;;;5055339;28;20440;-67
2023/11/15 05:54:33;;;;;;;1.70;1.47;;;10.30;99.90;;;;;;5055091;28;20451;-66
2023/11/15 05:57:00;;;;;;;3.67;1.90;;;10.30;99.90;;;;;;5054710;28;20555;-66
2023/11/15 05:59:27;;;;;;;3.67;2.10;;;10.30;99.90;;;;;;5054970;28;20454;-66
2023/11/15 06:01:54;;;;;;;6.47;1.50;;;10.30;99.90;;;;;;5054899;28;20447;-66
2023/11/15 06:04:21;;;;;;;2.53;1.10;;;10.30;99.90;;;;;;5054979;28;20516;-66
2023/11/15 06:06:48;;;;;;;1.00;1.00;;;10.30;99.90;;;;;;5053918;28;20484;-66
2023/11/15 06:09:17;;;;;;;1.93;1.30;;;10.30;99.90;;;;;;5054225;28;20445;-66
2023/11/15 06:11:44;;;;;;;4.20;1.83;;;10.40;99.90;;;;;;5053770;28;20453;-66
2023/11/15 06:14:14;;;;;;;3.57;1.70;;;10.40;99.90;;;;;;5047283;28;20436;-66
2023/11/15 06:16:41;;;;;;;1.73;1.60;;;10.40;99.90;;;;;;5054751;28;20460;-66
2023/11/15 06:19:08;;;;;;;1.50;1.40;;;10.40;99.90;;;;;;5054675;28;20447;-66
2023/11/15 06:21:35;;;;;;;3.73;1.70;;;10.40;99.90;;;;;;5054544;28;20449;-66
2023/11/15 06:24:01;;;;;;;1.80;1.10;;;10.50;99.90;;;;;;5054797;28;20855;-66
2023/11/15 06:26:36;;;;;;;3.17;1.80;;;10.40;99.90;;;;;;5054096;28;20487;-66
2023/11/15 06:29:04;;;;;;;3.33;1.40;;;10.40;99.90;;;;;;5054619;28;20535;-66
2023/11/15 06:31:32;;;;;;;2.80;1.40;;;10.40;99.90;;;;;;5047221;28;20449;-66
2023/11/15 06:33:59;;;;;;;3.00;1.57;;;10.40;99.90;;;;;;5052798;28;20475;-66
2023/11/15 06:36:28;;;;;;;2.93;2.20;;;10.40;99.90;;;;;;5053427;28;20528;-66
2023/11/15 06:38:55;;;;;;;2.30;1.13;;;10.30;99.90;;;;;;5054077;28;20447;-65
2023/11/15 06:41:21;;;;;;;1.50;1.07;;;10.40;99.90;;;;;;5054225;28;20449;-66
2023/11/15 06:43:50;;;;;;;4.07;1.80;;;10.30;99.90;;;;;;5053968;28;20476;-66
2023/11/15 06:46:19;;;;;;;1.53;1.43;;;10.30;99.90;;;;;;5053594;28;20532;-66
2023/11/15 06:48:47;;;;;;;2.90;1.73;;;10.30;99.90;;;;;;5053941;28;20974;-65
2023/11/15 06:51:13;;;;;;;4.77;2.70;;;10.40;99.90;;;;;;5053897;28;20502;-66
2023/11/15 06:53:40;;;;;;;2.50;1.53;;;10.40;99.90;;;;;;5053890;28;20444;-66
2023/11/15 06:56:08;;;;;;;3.03;1.90;;;10.40;99.90;;;;;;5053125;28;20819;-66
2023/11/15 06:58:35;;;;;;;1.87;1.23;;;10.40;99.90;;;;;;5053836;28;20523;-66
2023/11/15 07:01:06;;;;;;;2.83;2.00;;;10.40;99.90;;;;;;5053098;28;20488;-66
2023/11/15 07:03:33;;;;;;;4.23;2.97;;;10.40;99.90;;;;;;5053884;28;20484;-66
2023/11/15 07:06:00;;;;;;;3.40;2.13;;;10.40;99.90;;;;;;5053344;28;20444;-66
2023/11/15 07:08:26;;;;;;;2.60;2.30;;;10.40;99.90;;;;;;5053658;28;20464;-66
2023/11/15 07:10:56;;;;;;;2.93;2.13;;;10.40;99.90;;;;;;5053521;28;20452;-66
2023/11/15 07:13:23;;;;;;;3.80;3.07;;;10.40;99.90;;;;;;5053417;28;20445;-66
2023/11/15 07:15:50;;;;;;;2.70;1.90;;;10.50;99.90;;;;;;5052934;28;20832;-66
2023/11/15 07:18:20;;;;;;;4.17;1.47;;;10.50;99.90;;;;;;5053486;28;20840;-66
2023/11/15 07:20:47;;;;;;;7.40;1.93;;;10.50;99.90;;;;;;5053235;28;21054;-66
2023/11/15 07:23:15;;;;;;;5.27;2.00;;;10.50;99.90;;;;;;5053317;28;20449;-66
2023/11/15 07:25:42;;;;;;;3.07;2.77;;;10.50;99.90;;;;;;5053159;28;20449;-66
2023/11/15 07:28:09;;;;;;;3.20;1.53;;;10.50;99.90;;;;;;5052952;28;20492;-66
2023/11/15 07:30:36;;;;;;;3.67;2.47;;;10.50;99.90;;;;;;5053168;28;20452;-66
2023/11/15 07:33:04;;;;;;;4.20;1.70;;;10.50;99.90;;;;;;5053316;28;20500;-66
2023/11/15 07:35:33;;;;;;;4.13;2.30;;;10.50;99.90;;;;;;5053170;28;20441;-66
2023/11/15 07:38:00;;;;;;;4.00;2.17;;;10.50;99.90;;;;;;5052707;28;20826;-66
2023/11/15 07:40:28;;;;;;;3.03;1.87;;;10.50;99.90;;;;;;5052976;28;20540;-66
2023/11/15 07:42:54;;;;;;;9.13;3.40;;;10.50;99.90;;;;;;5044451;28;20445;-66
2023/11/15 07:45:21;;;;;;;4.53;2.17;;;10.60;99.90;;;;;;5052736;28;21264;-66
2023/11/15 07:47:48;;;;;;;3.17;2.87;;;10.50;99.90;;;;;;5052764;28;20465;-66
2023/11/15 07:50:17;;;;;;;2.30;1.43;;;10.60;99.90;;;;;;5052586;28;20951;-66
2023/11/15 07:52:46;;;;;;;4.53;2.50;;;10.60;99.90;;;;;;5052723;28;20876;-66
2023/11/15 07:55:13;;;;;;;4.23;2.13;;;10.70;99.90;;;;;;5052482;28;20445;-66
2023/11/15 07:57:39;;;;;;;3.23;2.87;;;10.80;99.90;;;;;;5052095;28;21148;-66
2023/11/15 08:00:11;;;;;;;2.50;2.13;;;10.80;99.90;;;;;;5052835;28;20449;-66
2023/11/15 08:02:38;;;;;;;3.43;1.90;;;10.90;99.90;;;;;;5052564;28;20480;-67
2023/11/15 08:05:07;;;;;;;2.93;1.53;;;10.90;99.90;;;;;;5052376;28;20572;-66
2023/11/15 08:07:36;;;;;;;3.80;1.80;;;11.00;99.90;;;;;;5051991;28;20512;-66
2023/11/15 08:10:05;;;;;;;6.13;2.10;;;11.00;99.90;;;;;;5052265;28;20461;-66
2023/11/15 08:12:35;;;;;;;2.20;1.83;;;11.10;99.90;;;;;;5051282;28;20942;-66
2023/11/15 08:15:03;;;;;;;4.70;2.43;;;11.10;99.90;;;;;;5052512;28;20445;-66
2023/11/15 08:17:30;;;;;;;2.37;1.97;;;11.20;99.90;;;;;;5051821;28;20555;-66
2023/11/15 08:19:57;;;;;;;3.63;2.07;;;11.20;99.90;;;;;;5052069;28;20950;-66
2023/11/15 08:22:24;;;;;;;1.47;1.37;;;11.30;99.90;;;;;;5052113;28;20455;-66
2023/11/15 08:24:51;;;;;;;4.00;1.80;;;11.40;99.90;;;;;;5052153;28;20480;-66
2023/11/15 08:27:19;;;;;;;2.40;1.73;;;11.50;99.90;;;;;;5051919;28;20823;-66
2023/11/15 08:29:47;;;;;;;1.77;1.53;;;11.50;99.90;;;;;;5052207;28;20884;-66
2023/11/15 08:32:23;;;;;;;1.43;1.33;;;11.50;99.90;;;;;;5088638;28;20575;-66
2023/11/15 08:34:50;;;;;;;5.00;1.83;;;11.60;99.90;;;;;;5088461;28;20474;-67
2023/11/15 08:37:17;;;;;;;2.40;1.77;;;11.50;99.90;;;;;;5087998;28;20463;-67
2023/11/15 08:39:44;;;;;;;3.30;2.60;;;11.50;99.90;;;;;;5088239;28;20451;-67
2023/11/15 08:42:11;;;;;;;1.93;1.70;;;11.50;99.90;;;;;;5088426;28;20534;-67
2023/11/15 08:44:41;;;;;;;2.00;1.33;;;11.50;99.90;;;;;;5078146;28;20458;-67
2023/11/15 08:47:08;;;;;;;4.60;2.10;;;11.40;99.90;;;;;;5078603;28;20468;-67
2023/11/15 08:49:39;;;;;;;3.03;1.60;;;11.40;99.90;;;;;;5083157;28;20869;-66
2023/11/15 08:52:06;;;;;;;2.20;1.50;;;11.40;99.90;;;;;;5080724;28;20491;-67
2023/11/15 08:54:35;;;;;;;4.77;2.33;;;11.40;99.90;;;;;;5087667;28;20493;-67
2023/11/15 08:57:02;;;;;;;5.50;1.77;;;11.40;99.90;;;;;;5081174;28;20856;-66
2023/11/15 08:59:29;;;;;;;2.13;1.17;;;11.40;99.90;;;;;;5087318;28;20447;-66
2023/11/15 09:01:56;;;;;;;2.63;1.33;;;11.50;99.90;;;;;;5086883;28;20451;-66
2023/11/15 09:04:23;;;;;;;4.43;1.63;;;11.50;99.90;;;;;;5082889;28;20451;-66
2023/11/15 09:06:52;;;;;;;5.30;1.60;;;11.60;99.90;;;;;;5084430;28;20477;-66
2023/11/15 09:09:19;;;;;;;2.97;1.57;;;11.60;99.90;;;;;;5079391;28;20455;-66
2023/11/15 09:11:47;;;;;;;2.03;1.30;;;11.60;99.90;;;;;;5082378;28;20483;-66
2023/11/15 09:14:14;;;;;;;2.83;2.30;;;11.60;99.90;;;;;;5086895;28;20478;-66
2023/11/15 09:16:41;;;;;;;3.53;1.93;;;11.70;99.90;;;;;;5083133;28;20467;-67
2023/11/15 09:19:12;;;;;;;3.53;1.40;;;11.80;99.90;;;;;;5086952;28;20451;-66
2023/11/15 09:21:39;;;;;;;6.67;4.23;;;11.80;99.90;;;;;;5083982;28;20451;-67
2023/11/15 09:24:08;;;;;;;1.87;1.53;;;11.80;99.90;;;;;;5087094;28;20526;-67
2023/11/15 09:26:37;;;;;;;4.17;1.50;;;11.80;99.90;;;;;;5076325;28;20473;-66
2023/11/15 09:29:05;;;;;;;3.17;1.17;;;11.80;99.90;;;;;;5084830;28;20483;-66
2023/11/15 09:31:33;;;;;;;5.93;1.40;;;11.90;99.90;;;;;;5084026;28;20486;-67
2023/11/15 09:34:01;;;;;;;3.70;1.80;;;11.90;99.90;;;;;;5087301;28;20777;-66
2023/11/15 09:36:27;;;;;;;2.50;1.80;;;11.90;99.90;;;;;;5077223;28;20842;-66
2023/11/15 09:38:55;;;;;;;3.80;1.87;;;12.00;99.90;;;;;;5073779;28;20436;-66
2023/11/15 09:41:24;;;;;;;7.23;1.83;;;12.10;99.90;;;;;;5080648;28;20448;-66
2023/11/15 09:43:55;;;;;;;2.87;1.77;;;12.10;99.90;;;;;;5072573;28;20490;-66
2023/11/15 09:46:22;;;;;;;3.87;1.47;;;12.10;99.90;;;;;;5069145;28;20459;-66
2023/11/15 09:48:54;;;;;;;2.73;1.93;;;12.10;99.90;;;;;;5072080;28;20527;-66
2023/11/15 09:51:24;;;;;;;1.87;1.40;;;12.20;99.90;;;;;;5064540;28;20502;-66
2023/11/15 09:53:51;;;;;;;3.60;2.13;;;12.20;99.90;;;;;;5065931;28;20452;-66
2023/11/15 09:56:19;;;;;;;1.50;1.10;;;12.20;99.90;;;;;;5066639;28;20479;-66
2023/11/15 09:58:49;;;;;;;4.33;2.00;;;12.30;99.90;;;;;;5063163;28;20448;-66
2023/11/15 10:01:16;;;;;;;1.80;1.53;;;12.40;99.90;;;;;;5072176;28;20951;-66
2023/11/15 10:03:43;;;;;;;2.20;1.53;;;12.40;99.90;;;;;;5072847;28;20454;-66
2023/11/15 10:06:10;;;;;;;7.93;1.80;;;12.40;99.90;;;;;;5070305;28;21049;-66
2023/11/15 10:08:51;;;;;;;3.80;1.67;;;12.50;99.90;;;;;;5071304;28;20476;-66
2023/11/15 10:11:18;;;;;;;5.77;1.50;;;12.60;99.90;;;;;;5072229;28;20580;-65
2023/11/15 10:13:49;;;;;;;6.70;3.20;;;12.70;99.90;;;;;;5069595;28;20458;-66
2023/11/15 10:16:23;;;;;;;3.60;1.90;;;12.70;99.90;;;;;;5064084;28;20536;-66
2023/11/15 10:18:51;;;;;;;1.53;1.43;;;12.80;99.90;;;;;;5071704;28;20466;-66
2023/11/15 10:21:19;;;;;;;2.10;1.57;;;12.90;99.90;;;;;;5071958;28;20448;-66
2023/11/15 10:23:46;;;;;;;4.90;2.30;;;13.00;99.90;;;;;;5072339;28;20448;-66
2023/11/15 10:26:13;;;;;;;4.20;1.70;;;13.20;99.90;;;;;;5072030;28;20444;-66
2023/11/15 10:28:40;;;;;;;5.87;1.43;;;13.30;99.90;;;;;;5065340;28;20468;-65
2023/11/15 10:31:13;;;;;;;1.90;1.40;;;13.50;99.90;;;;;;5052124;28;20491;-66
2023/11/15 10:33:43;;;;;;;3.00;1.80;;;13.60;99.90;;;;;;5056539;28;20456;-66
2023/11/15 10:36:17;;;;;;;3.30;1.87;;;13.70;99.90;;;;;;5071243;28;20448;-66
2023/11/15 10:38:46;;;;;;;2.37;1.63;;;13.70;99.90;;;;;;5071512;28;20443;-65
2023/11/15 10:41:19;;;;;;;5.10;1.70;;;13.70;99.90;;;;;;5071077;28;20460;-66
2023/11/15 10:43:48;;;;;;;1.57;1.47;;;13.70;99.90;;;;;;5065674;28;20457;-66
2023/11/15 10:46:18;;;;;;;3.23;1.60;;;13.60;99.90;;;;;;5063169;28;20482;-66
2023/11/15 10:48:49;;;;;;;2.77;1.53;;;13.60;99.90;;;;;;5070873;28;20458;-66
2023/11/15 10:51:21;;;;;;;2.80;1.13;;;13.60;99.90;;;;;;5063485;28;20856;-65
2023/11/15 10:53:48;;;;;;;2.00;1.70;;;13.60;99.90;;;;;;5070565;28;20445;-66
2023/11/15 10:56:16;;;;;;;3.87;2.87;;;13.60;99.90;;;;;;5070475;28;20527;-66
2023/11/15 10:58:46;;;;;;;1.53;1.40;;;13.70;99.90;;;;;;5064486;28;20846;-66
2023/11/15 11:01:17;;;;;;;3.90;1.67;;;13.70;99.90;;;;;;5058173;28;20871;-66
2023/11/15 11:03:47;;;;;;;4.40;1.50;;;13.80;99.90;;;;;;5067232;28;20452;-66
2023/11/15 11:06:21;;;;;;;2.87;1.50;;;13.90;99.90;;;;;;5059421;28;20474;-66
2023/11/15 11:08:58;;;;;;;1.80;1.40;;;14.00;99.90;;;;;;5070936;28;20444;-66
2023/11/15 11:11:32;;;;;;;3.33;1.67;;;14.20;99.90;;;;;;5071065;28;20598;-65
2023/11/15 11:14:16;;;;;;;3.93;1.33;;;14.30;99.90;;;;;;5071077;28;20523;-66
2023/11/15 11:16:45;;;;;;;3.63;1.73;;;14.30;99.90;;;;;;5070000;28;21204;-66
2023/11/15 11:19:16;;;;;;;1.97;1.70;;;14.40;99.90;;;;;;5062709;28;20444;-65
2023/11/15 11:22:07;;;;;;;4.33;1.30;;;14.40;99.90;;;;;;5070646;28;20448;-65
2023/11/15 11:24:38;;;;;;;2.03;1.90;;;14.60;99.90;;;;;;5057363;28;20444;-65
2023/11/15 11:27:30;;;;;;;3.87;1.53;;;14.70;99.90;;;;;;5070118;28;20844;-65
2023/11/15 11:30:13;;;;;;;2.13;1.10;;;14.70;99.90;;;;;;5067317;28;20470;-66
2023/11/15 11:32:43;;;;;;;3.00;1.13;;;14.80;99.90;;;;;;5070970;28;20475;-66
2023/11/15 11:35:30;;;;;;;1.97;1.73;;;14.80;99.90;;;;;;5070874;28;20478;-66
2023/11/15 11:37:59;;;;;;;3.80;1.60;;;14.90;99.90;;;;;;5067319;28;20639;-66
2023/11/15 11:40:31;;;;;;;1.70;1.40;;;15.00;99.90;;;;;;5055604;28;20478;-66
2023/11/15 11:43:21;;;;;;;1.50;1.20;;;14.90;99.90;;;;;;5070763;28;20447;-65
2023/11/15 11:45:52;;;;;;;4.17;2.00;;;14.80;99.90;;;;;;5070052;28;20828;-67
2023/11/15 11:48:22;;;;;;;1.93;1.33;;;14.70;99.90;;;;;;5058531;28;20492;-66
2023/11/15 11:51:03;;;;;;;1.73;1.57;;;14.50;99.90;;;;;;5069945;28;20510;-63
2023/11/15 11:53:30;;;;;;;3.30;1.77;;;14.30;99.90;;;;;;5070538;28;20440;-65
2023/11/15 11:55:58;;;;;;;1.90;1.23;;;14.10;99.90;;;;;;5066766;28;20449;-65
2023/11/15 11:58:27;;;;;;;1.53;1.30;;;14.00;99.90;;;;;;5057525;28;20463;-64
2023/11/15 12:01:02;;;;;;;2.60;1.13;;;13.80;99.90;;;;;;5064154;28;20871;-65
2023/11/15 12:03:31;;;;;;;2.30;1.70;;;13.60;99.90;;;;;;5064589;28;20452;-66
2023/11/15 12:05:59;;;;;;;3.17;1.60;;;13.50;99.90;;;;;;5054170;28;20464;-62
2023/11/15 12:08:28;;;;;;;1.13;1.03;;;13.30;99.90;;;;;;5070475;28;20541;-66
2023/11/15 12:10:58;;;;;;;3.63;2.50;;;13.10;99.90;;;;;;5065207;28;20444;-66
2023/11/15 12:13:25;;;;;;;1.53;1.40;;;12.90;99.90;;;;;;5065188;28;20545;-66
2023/11/15 12:15:52;;;;;;;1.40;1.30;;;12.70;99.90;;;;;;5064536;28;20531;-65
2023/11/15 12:18:18;;;;;;;1.70;1.43;;;12.40;99.90;;;;;;5062363;28;20564;-65
2023/11/15 12:20:47;;;;;;;1.57;0.90;;;12.30;99.90;;;;;;5068001;28;20938;-65
2023/11/15 12:23:17;;;;;;;1.33;0.93;;;12.10;99.90;;;;;;5054087;28;20459;-65
2023/11/15 12:25:45;;;;;;;1.80;1.10;;;12.00;99.90;;;;;;5061816;28;20501;-66
2023/11/15 12:28:14;;;;;;;4.23;1.03;;;11.80;99.90;;;;;;5065126;28;20471;-65
2023/11/15 12:30:43;;;;;;;3.33;1.40;;;11.70;99.90;;;;;;5069110;28;20460;-65
2023/11/15 12:33:11;;;;;;;1.10;1.00;;;11.60;99.90;;;;;;5062278;28;20498;-65
2023/11/15 12:35:40;;;;;;;2.30;1.30;;;11.40;99.90;;;;;;5065468;28;20452;-66
2023/11/15 12:38:12;;;;;;;1.30;1.20;;;11.30;99.90;;;;;;5063509;28;20479;-66
2023/11/15 12:40:41;;;;;;;1.37;1.37;;;11.20;99.90;;;;;;5069394;28;20517;-66
2023/11/15 12:43:17;;;;;;;3.43;2.17;;;11.10;99.90;;;;;;5062662;28;20899;-66
2023/11/15 12:45:44;;;;;;;8.40;2.20;;;11.00;99.90;;;;;;5069836;28;20457;-67
2023/11/15 12:48:12;;;;;;;2.97;1.73;;;11.00;99.90;;;;;;5062367;28;20990;-66
2023/11/15 12:50:40;;;;;;;6.30;1.90;;;10.90;99.90;;;;;;5057020;28;20451;-66
2023/11/15 12:53:10;;;;;;;1.83;1.40;;;10.90;99.90;;;;;;5066616;28;20888;-66